sensor_id;sensor_type;location;lat;lon;timestamp;temperature;humidity
63047;DHT22;62025;39.238;9.126;2023-07-31T00:00:38;28.90;61.90
63047;DHT22;62025;39.238;9.126;2023-07-31T00:03:04;28.90;61.40
63047;DHT22;62025;39.238;9.126;2023-07-31T00:05:30;28.90;61.40
63047;DHT22;62025;39.238;9.126;2023-07-31T00:07:56;28.90;61.10
63047;DHT22;62025;39.238;9.126;2023-07-31T00:10:22;28.90;61.00
63047;DHT22;62025;39.238;9.126;2023-07-31T00:12:48;28.90;61.00
63047;DHT22;62025;39.238;9.126;2023-07-31T00:15:14;28.90;61.10
63047;DHT22;62025;39.238;9.126;2023-07-31T00:17:40;28.80;61.20
63047;DHT22;62025;39.238;9.126;2023-07-31T00:20:07;28.80;61.10
63047;DHT22;62025;39.238;9.126;2023-07-31T00:22:33;28.80;61.10
63047;DHT22;62025;39.238;9.126;2023-07-31T00:24:59;28.80;61.10
63047;DHT22;62025;39.238;9.126;2023-07-31T00:27:25;28.80;61.30
63047;DHT22;62025;39.238;9.126;2023-07-31T00:29:51;28.70;62.00
63047;DHT22;62025;39.238;9.126;2023-07-31T00:32:17;28.70;62.40
63047;DHT22;62025;39.238;9.126;2023-07-31T00:34:43;28.70;62.90
63047;DHT22;62025;39.238;9.126;2023-07-31T00:37:09;28.70;63.10
63047;DHT22;62025;39.238;9.126;2023-07-31T00:39:35;28.70;63.40
63047;DHT22;62025;39.238;9.126;2023-07-31T00:42:02;28.70;63.50
63047;DHT22;62025;39.238;9.126;2023-07-31T00:44:28;28.60;63.30
63047;DHT22;62025;39.238;9.126;2023-07-31T00:46:54;28.70;63.40
63047;DHT22;62025;39.238;9.126;2023-07-31T00:49:22;28.70;62.90
63047;DHT22;62025;39.238;9.126;2023-07-31T00:51:48;28.60;62.70
63047;DHT22;62025;39.238;9.126;2023-07-31T00:54:14;28.60;62.40
63047;DHT22;62025;39.238;9.126;2023-07-31T00:56:41;28.50;62.30
63047;DHT22;62025;39.238;9.126;2023-07-31T00:59:10;28.50;62.40
63047;DHT22;62025;39.238;9.126;2023-07-31T01:01:37;28.50;62.50
63047;DHT22;62025;39.238;9.126;2023-07-31T01:04:03;28.50;62.60
63047;DHT22;62025;39.238;9.126;2023-07-31T01:06:48;28.50;63.10
63047;DHT22;62025;39.238;9.126;2023-07-31T01:10:03;28.50;63.50
63047;DHT22;62025;39.238;9.126;2023-07-31T01:12:30;28.40;64.00
63047;DHT22;62025;39.238;9.126;2023-07-31T01:15:09;28.40;64.20
63047;DHT22;62025;39.238;9.126;2023-07-31T01:17:42;28.40;64.40
63047;DHT22;62025;39.238;9.126;2023-07-31T01:20:15;28.40;64.70
63047;DHT22;62025;39.238;9.126;2023-07-31T01:31:21;28.40;65.20
63047;DHT22;62025;39.238;9.126;2023-07-31T01:33:55;28.40;65.10
63047;DHT22;62025;39.238;9.126;2023-07-31T01:36:23;28.40;65.00
63047;DHT22;62025;39.238;9.126;2023-07-31T01:38:50;28.40;65.00
63047;DHT22;62025;39.238;9.126;2023-07-31T01:41:19;28.40;64.90
63047;DHT22;62025;39.238;9.126;2023-07-31T01:43:46;28.40;64.80
63047;DHT22;62025;39.238;9.126;2023-07-31T01:46:12;28.40;64.90
63047;DHT22;62025;39.238;9.126;2023-07-31T01:48:38;28.40;65.00
63047;DHT22;62025;39.238;9.126;2023-07-31T01:51:05;28.30;65.20
63047;DHT22;62025;39.238;9.126;2023-07-31T01:53:31;28.30;65.60
63047;DHT22;62025;39.238;9.126;2023-07-31T01:55:57;28.30;65.70
63047;DHT22;62025;39.238;9.126;2023-07-31T01:58:23;28.30;65.80
63047;DHT22;62025;39.238;9.126;2023-07-31T02:00:49;28.30;65.60
63047;DHT22;62025;39.238;9.126;2023-07-31T02:03:15;28.30;65.60
63047;DHT22;62025;39.238;9.126;2023-07-31T02:05:48;28.20;65.60
63047;DHT22;62025;39.238;9.126;2023-07-31T02:08:15;28.20;65.40
63047;DHT22;62025;39.238;9.126;2023-07-31T02:10:42;28.20;65.60
63047;DHT22;62025;39.238;9.126;2023-07-31T02:13:08;28.20;65.70
63047;DHT22;62025;39.238;9.126;2023-07-31T02:15:34;28.20;65.70
63047;DHT22;62025;39.238;9.126;2023-07-31T02:18:01;28.20;65.60
63047;DHT22;62025;39.238;9.126;2023-07-31T02:20:27;28.20;65.50
63047;DHT22;62025;39.238;9.126;2023-07-31T02:22:53;28.20;65.40
63047;DHT22;62025;39.238;9.126;2023-07-31T02:25:19;28.20;65.20
63047;DHT22;62025;39.238;9.126;2023-07-31T02:27:45;28.20;65.20
63047;DHT22;62025;39.238;9.126;2023-07-31T02:30:11;28.20;65.10
63047;DHT22;62025;39.238;9.126;2023-07-31T02:32:37;28.20;64.80
63047;DHT22;62025;39.238;9.126;2023-07-31T02:35:03;28.20;64.70
63047;DHT22;62025;39.238;9.126;2023-07-31T02:37:29;28.20;64.70
63047;DHT22;62025;39.238;9.126;2023-07-31T02:39:55;28.20;64.70
63047;DHT22;62025;39.238;9.126;2023-07-31T02:42:21;28.10;64.80
63047;DHT22;62025;39.238;9.126;2023-07-31T02:44:47;28.20;65.00
63047;DHT22;62025;39.238;9.126;2023-07-31T02:47:14;28.20;65.20
63047;DHT22;62025;39.238;9.126;2023-07-31T02:49:40;28.20;65.40
63047;DHT22;62025;39.238;9.126;2023-07-31T02:52:06;28.10;65.70
63047;DHT22;62025;39.238;9.126;2023-07-31T02:54:32;28.10;65.60
63047;DHT22;62025;39.238;9.126;2023-07-31T02:56:58;28.20;65.70
63047;DHT22;62025;39.238;9.126;2023-07-31T02:59:24;28.10;66.10
63047;DHT22;62025;39.238;9.126;2023-07-31T03:01:51;28.10;66.30
63047;DHT22;62025;39.238;9.126;2023-07-31T03:04:16;28.10;66.50
63047;DHT22;62025;39.238;9.126;2023-07-31T03:06:42;28.10;66.60
63047;DHT22;62025;39.238;9.126;2023-07-31T03:09:08;28.10;66.80
63047;DHT22;62025;39.238;9.126;2023-07-31T03:11:34;28.10;66.90
63047;DHT22;62025;39.238;9.126;2023-07-31T03:14:01;28.10;66.90
63047;DHT22;62025;39.238;9.126;2023-07-31T03:16:27;28.10;67.10
63047;DHT22;62025;39.238;9.126;2023-07-31T03:18:54;28.10;67.20
63047;DHT22;62025;39.238;9.126;2023-07-31T03:21:20;28.10;67.20
63047;DHT22;62025;39.238;9.126;2023-07-31T03:23:46;28.10;67.20
63047;DHT22;62025;39.238;9.126;2023-07-31T03:26:12;28.10;67.30
63047;DHT22;62025;39.238;9.126;2023-07-31T03:28:38;28.00;67.30
63047;DHT22;62025;39.238;9.126;2023-07-31T03:31:04;28.00;67.20
63047;DHT22;62025;39.238;9.126;2023-07-31T03:33:30;28.10;67.30
63047;DHT22;62025;39.238;9.126;2023-07-31T03:35:56;28.00;67.30
63047;DHT22;62025;39.238;9.126;2023-07-31T03:38:22;28.00;67.30
63047;DHT22;62025;39.238;9.126;2023-07-31T03:40:48;28.00;67.50
63047;DHT22;62025;39.238;9.126;2023-07-31T03:43:15;28.00;67.70
63047;DHT22;62025;39.238;9.126;2023-07-31T03:45:42;28.00;67.60
63047;DHT22;62025;39.238;9.126;2023-07-31T03:48:08;28.00;67.70
63047;DHT22;62025;39.238;9.126;2023-07-31T03:50:34;28.00;67.80
63047;DHT22;62025;39.238;9.126;2023-07-31T03:53:00;27.90;67.80
63047;DHT22;62025;39.238;9.126;2023-07-31T03:55:26;27.90;67.80
63047;DHT22;62025;39.238;9.126;2023-07-31T03:57:52;27.90;67.80
63047;DHT22;62025;39.238;9.126;2023-07-31T04:00:18;28.00;67.90
63047;DHT22;62025;39.238;9.126;2023-07-31T04:02:44;28.00;67.90
63047;DHT22;62025;39.238;9.126;2023-07-31T04:05:10;27.90;67.80
63047;DHT22;62025;39.238;9.126;2023-07-31T04:07:37;27.90;67.80
63047;DHT22;62025;39.238;9.126;2023-07-31T04:10:03;27.90;67.80
63047;DHT22;62025;39.238;9.126;2023-07-31T04:12:29;27.90;67.90
63047;DHT22;62025;39.238;9.126;2023-07-31T04:14:55;27.90;67.90
63047;DHT22;62025;39.238;9.126;2023-07-31T04:17:21;27.90;67.80
63047;DHT22;62025;39.238;9.126;2023-07-31T04:19:47;27.90;67.80
63047;DHT22;62025;39.238;9.126;2023-07-31T04:22:13;27.90;67.70
63047;DHT22;62025;39.238;9.126;2023-07-31T04:24:40;27.90;67.60
63047;DHT22;62025;39.238;9.126;2023-07-31T04:27:06;27.90;67.60
63047;DHT22;62025;39.238;9.126;2023-07-31T04:29:32;27.90;67.60
63047;DHT22;62025;39.238;9.126;2023-07-31T04:31:58;27.90;67.50
63047;DHT22;62025;39.238;9.126;2023-07-31T04:34:24;27.90;67.40
63047;DHT22;62025;39.238;9.126;2023-07-31T04:36:50;27.90;67.40
63047;DHT22;62025;39.238;9.126;2023-07-31T04:39:16;27.80;67.40
63047;DHT22;62025;39.238;9.126;2023-07-31T04:41:42;27.80;67.30
63047;DHT22;62025;39.238;9.126;2023-07-31T04:44:08;27.80;67.30
63047;DHT22;62025;39.238;9.126;2023-07-31T04:46:34;27.80;67.30
63047;DHT22;62025;39.238;9.126;2023-07-31T04:49:00;27.80;67.30
63047;DHT22;62025;39.238;9.126;2023-07-31T04:51:26;27.80;67.30
63047;DHT22;62025;39.238;9.126;2023-07-31T04:53:52;27.80;67.30
63047;DHT22;62025;39.238;9.126;2023-07-31T04:56:18;27.80;67.30
63047;DHT22;62025;39.238;9.126;2023-07-31T04:58:44;27.90;67.20
63047;DHT22;62025;39.238;9.126;2023-07-31T05:01:10;27.80;67.20
63047;DHT22;62025;39.238;9.126;2023-07-31T05:03:36;27.80;67.20
63047;DHT22;62025;39.238;9.126;2023-07-31T05:06:02;27.80;67.30
63047;DHT22;62025;39.238;9.126;2023-07-31T05:08:28;27.80;67.40
63047;DHT22;62025;39.238;9.126;2023-07-31T05:10:53;27.90;67.50
63047;DHT22;62025;39.238;9.126;2023-07-31T05:13:19;27.90;67.50
63047;DHT22;62025;39.238;9.126;2023-07-31T05:15:45;27.90;67.50
63047;DHT22;62025;39.238;9.126;2023-07-31T05:18:11;27.90;67.70
63047;DHT22;62025;39.238;9.126;2023-07-31T05:20:37;28.00;67.60
63047;DHT22;62025;39.238;9.126;2023-07-31T05:23:03;28.00;67.60
63047;DHT22;62025;39.238;9.126;2023-07-31T05:25:29;28.00;67.70
63047;DHT22;62025;39.238;9.126;2023-07-31T05:27:55;28.10;67.50
63047;DHT22;62025;39.238;9.126;2023-07-31T05:30:21;28.20;67.40
63047;DHT22;62025;39.238;9.126;2023-07-31T05:32:47;28.20;67.50
63047;DHT22;62025;39.238;9.126;2023-07-31T05:35:13;28.30;67.10
63047;DHT22;62025;39.238;9.126;2023-07-31T05:37:39;28.30;67.00
63047;DHT22;62025;39.238;9.126;2023-07-31T05:40:05;28.30;67.00
63047;DHT22;62025;39.238;9.126;2023-07-31T05:42:32;28.40;66.80
63047;DHT22;62025;39.238;9.126;2023-07-31T05:44:58;28.40;66.50
63047;DHT22;62025;39.238;9.126;2023-07-31T05:47:24;28.40;66.30
63047;DHT22;62025;39.238;9.126;2023-07-31T05:49:50;28.40;66.20
63047;DHT22;62025;39.238;9.126;2023-07-31T05:52:18;28.50;66.10
63047;DHT22;62025;39.238;9.126;2023-07-31T05:54:44;28.50;65.90
63047;DHT22;62025;39.238;9.126;2023-07-31T05:57:11;28.50;65.80
63047;DHT22;62025;39.238;9.126;2023-07-31T05:59:37;28.50;65.60
63047;DHT22;62025;39.238;9.126;2023-07-31T06:02:04;28.60;65.60
63047;DHT22;62025;39.238;9.126;2023-07-31T06:04:30;28.70;65.30
63047;DHT22;62025;39.238;9.126;2023-07-31T06:06:56;28.70;65.40
63047;DHT22;62025;39.238;9.126;2023-07-31T06:09:22;28.70;65.50
63047;DHT22;62025;39.238;9.126;2023-07-31T06:11:48;28.80;65.10
63047;DHT22;62025;39.238;9.126;2023-07-31T06:14:14;28.80;64.90
63047;DHT22;62025;39.238;9.126;2023-07-31T06:16:40;28.90;64.50
63047;DHT22;62025;39.238;9.126;2023-07-31T06:19:06;28.90;64.30
63047;DHT22;62025;39.238;9.126;2023-07-31T06:21:33;29.00;64.40
63047;DHT22;62025;39.238;9.126;2023-07-31T06:24:00;29.00;64.00
63047;DHT22;62025;39.238;9.126;2023-07-31T06:26:25;29.00;63.80
63047;DHT22;62025;39.238;9.126;2023-07-31T06:28:51;28.90;63.60
63047;DHT22;62025;39.238;9.126;2023-07-31T06:31:17;28.90;63.30
63047;DHT22;62025;39.238;9.126;2023-07-31T06:33:46;29.00;63.20
63047;DHT22;62025;39.238;9.126;2023-07-31T06:36:12;29.00;63.10
63047;DHT22;62025;39.238;9.126;2023-07-31T06:38:38;29.00;62.80
63047;DHT22;62025;39.238;9.126;2023-07-31T06:41:04;29.10;62.60
63047;DHT22;62025;39.238;9.126;2023-07-31T06:43:30;29.20;62.50
63047;DHT22;62025;39.238;9.126;2023-07-31T06:45:55;29.20;62.40
63047;DHT22;62025;39.238;9.126;2023-07-31T06:48:22;29.40;61.90
63047;DHT22;62025;39.238;9.126;2023-07-31T06:50:47;29.50;61.60
63047;DHT22;62025;39.238;9.126;2023-07-31T06:53:13;29.60;61.40
63047;DHT22;62025;39.238;9.126;2023-07-31T06:55:39;29.70;61.20
63047;DHT22;62025;39.238;9.126;2023-07-31T06:58:05;29.60;61.00
63047;DHT22;62025;39.238;9.126;2023-07-31T07:00:31;29.60;60.80
63047;DHT22;62025;39.238;9.126;2023-07-31T07:02:58;29.70;60.40
63047;DHT22;62025;39.238;9.126;2023-07-31T07:05:24;29.70;60.00
63047;DHT22;62025;39.238;9.126;2023-07-31T07:07:50;29.70;59.60
63047;DHT22;62025;39.238;9.126;2023-07-31T07:10:19;29.90;59.20
63047;DHT22;62025;39.238;9.126;2023-07-31T07:12:46;29.90;59.00
63047;DHT22;62025;39.238;9.126;2023-07-31T07:15:12;30.00;58.40
63047;DHT22;62025;39.238;9.126;2023-07-31T07:17:38;30.10;57.90
63047;DHT22;62025;39.238;9.126;2023-07-31T07:20:04;30.30;57.30
63047;DHT22;62025;39.238;9.126;2023-07-31T07:22:30;30.40;57.30
63047;DHT22;62025;39.238;9.126;2023-07-31T07:24:56;30.40;56.90
63047;DHT22;62025;39.238;9.126;2023-07-31T07:27:22;30.50;56.30
63047;DHT22;62025;39.238;9.126;2023-07-31T07:29:50;30.60;56.00
63047;DHT22;62025;39.238;9.126;2023-07-31T07:32:20;30.50;55.50
63047;DHT22;62025;39.238;9.126;2023-07-31T07:34:47;30.60;54.80
63047;DHT22;62025;39.238;9.126;2023-07-31T07:37:14;30.70;54.70
63047;DHT22;62025;39.238;9.126;2023-07-31T07:39:41;30.70;54.20
63047;DHT22;62025;39.238;9.126;2023-07-31T07:42:07;30.90;53.80
63047;DHT22;62025;39.238;9.126;2023-07-31T07:44:33;31.00;52.50
63047;DHT22;62025;39.238;9.126;2023-07-31T07:46:59;31.10;52.50
63047;DHT22;62025;39.238;9.126;2023-07-31T07:49:25;31.10;52.50
63047;DHT22;62025;39.238;9.126;2023-07-31T07:51:51;31.30;51.90
63047;DHT22;62025;39.238;9.126;2023-07-31T07:54:17;31.40;51.40
63047;DHT22;62025;39.238;9.126;2023-07-31T07:56:43;31.40;51.20
63047;DHT22;62025;39.238;9.126;2023-07-31T07:59:09;31.40;50.50
63047;DHT22;62025;39.238;9.126;2023-07-31T08:01:35;31.50;50.50
63047;DHT22;62025;39.238;9.126;2023-07-31T08:04:01;31.60;50.20
63047;DHT22;62025;39.238;9.126;2023-07-31T08:06:27;31.80;49.70
63047;DHT22;62025;39.238;9.126;2023-07-31T08:08:53;31.80;49.10
63047;DHT22;62025;39.238;9.126;2023-07-31T08:11:19;31.90;48.60
63047;DHT22;62025;39.238;9.126;2023-07-31T08:13:45;31.90;48.80
63047;DHT22;62025;39.238;9.126;2023-07-31T08:16:11;31.90;47.90
63047;DHT22;62025;39.238;9.126;2023-07-31T08:18:36;32.00;47.40
63047;DHT22;62025;39.238;9.126;2023-07-31T08:21:03;32.20;47.30
63047;DHT22;62025;39.238;9.126;2023-07-31T08:23:30;32.30;47.10
63047;DHT22;62025;39.238;9.126;2023-07-31T08:25:56;32.40;46.30
63047;DHT22;62025;39.238;9.126;2023-07-31T08:28:22;32.50;46.00
63047;DHT22;62025;39.238;9.126;2023-07-31T08:30:48;32.60;45.80
63047;DHT22;62025;39.238;9.126;2023-07-31T08:33:16;32.70;44.90
63047;DHT22;62025;39.238;9.126;2023-07-31T08:35:42;32.70;45.30
63047;DHT22;62025;39.238;9.126;2023-07-31T08:38:07;32.70;44.60
63047;DHT22;62025;39.238;9.126;2023-07-31T08:40:36;32.70;44.20
63047;DHT22;62025;39.238;9.126;2023-07-31T08:43:07;32.80;43.10
63047;DHT22;62025;39.238;9.126;2023-07-31T08:45:32;32.90;42.40
63047;DHT22;62025;39.238;9.126;2023-07-31T08:47:59;33.00;42.60
63047;DHT22;62025;39.238;9.126;2023-07-31T08:50:25;33.00;41.70
63047;DHT22;62025;39.238;9.126;2023-07-31T08:52:52;32.90;42.00
63047;DHT22;62025;39.238;9.126;2023-07-31T08:55:18;33.00;41.90
63047;DHT22;62025;39.238;9.126;2023-07-31T08:57:52;33.00;41.40
63047;DHT22;62025;39.238;9.126;2023-07-31T09:00:21;33.10;41.50
63047;DHT22;62025;39.238;9.126;2023-07-31T09:03:02;33.10;41.00
63047;DHT22;62025;39.238;9.126;2023-07-31T09:05:30;33.00;40.50
63047;DHT22;62025;39.238;9.126;2023-07-31T09:07:57;33.20;40.10
63047;DHT22;62025;39.238;9.126;2023-07-31T09:10:24;33.20;40.10
63047;DHT22;62025;39.238;9.126;2023-07-31T09:12:53;33.20;40.10
63047;DHT22;62025;39.238;9.126;2023-07-31T09:15:20;33.40;40.00
63047;DHT22;62025;39.238;9.126;2023-07-31T09:17:47;33.40;39.90
63047;DHT22;62025;39.238;9.126;2023-07-31T09:20:18;33.60;39.90
63047;DHT22;62025;39.238;9.126;2023-07-31T09:22:46;33.70;39.90
63047;DHT22;62025;39.238;9.126;2023-07-31T09:25:26;33.60;39.90
63047;DHT22;62025;39.238;9.126;2023-07-31T09:28:01;33.60;39.90
63047;DHT22;62025;39.238;9.126;2023-07-31T09:30:28;33.70;40.00
63047;DHT22;62025;39.238;9.126;2023-07-31T09:33:02;33.80;39.00
63047;DHT22;62025;39.238;9.126;2023-07-31T09:35:31;33.80;39.10
63047;DHT22;62025;39.238;9.126;2023-07-31T09:38:00;33.70;38.40
63047;DHT22;62025;39.238;9.126;2023-07-31T09:40:34;33.80;38.00
63047;DHT22;62025;39.238;9.126;2023-07-31T09:43:02;33.90;37.70
63047;DHT22;62025;39.238;9.126;2023-07-31T09:45:30;34.00;37.70
63047;DHT22;62025;39.238;9.126;2023-07-31T09:47:59;34.00;37.90
63047;DHT22;62025;39.238;9.126;2023-07-31T09:50:25;33.90;38.00
63047;DHT22;62025;39.238;9.126;2023-07-31T09:52:52;34.00;37.60
63047;DHT22;62025;39.238;9.126;2023-07-31T09:55:19;34.00;37.20
63047;DHT22;62025;39.238;9.126;2023-07-31T09:57:47;34.10;36.80
63047;DHT22;62025;39.238;9.126;2023-07-31T10:00:18;34.20;36.70
63047;DHT22;62025;39.238;9.126;2023-07-31T10:02:48;34.20;36.30
63047;DHT22;62025;39.238;9.126;2023-07-31T10:05:15;34.20;36.30
63047;DHT22;62025;39.238;9.126;2023-07-31T10:07:54;34.20;36.00
63047;DHT22;62025;39.238;9.126;2023-07-31T10:10:22;34.10;36.50
63047;DHT22;62025;39.238;9.126;2023-07-31T10:12:49;34.00;36.40
63047;DHT22;62025;39.238;9.126;2023-07-31T10:15:18;34.00;36.40
63047;DHT22;62025;39.238;9.126;2023-07-31T10:17:48;34.10;36.30
63047;DHT22;62025;39.238;9.126;2023-07-31T10:20:15;34.10;36.20
63047;DHT22;62025;39.238;9.126;2023-07-31T10:22:43;34.10;35.60
63047;DHT22;62025;39.238;9.126;2023-07-31T10:25:11;34.10;35.80
63047;DHT22;62025;39.238;9.126;2023-07-31T10:27:39;33.90;35.50
63047;DHT22;62025;39.238;9.126;2023-07-31T10:30:09;33.80;36.00
63047;DHT22;62025;39.238;9.126;2023-07-31T10:32:39;33.80;35.60
63047;DHT22;62025;39.238;9.126;2023-07-31T10:35:08;33.80;35.40
63047;DHT22;62025;39.238;9.126;2023-07-31T10:37:40;33.70;35.80
63047;DHT22;62025;39.238;9.126;2023-07-31T10:40:27;33.60;35.80
63047;DHT22;62025;39.238;9.126;2023-07-31T10:42:54;33.70;36.00
63047;DHT22;62025;39.238;9.126;2023-07-31T10:45:34;33.60;36.40
63047;DHT22;62025;39.238;9.126;2023-07-31T10:48:04;33.60;36.20
63047;DHT22;62025;39.238;9.126;2023-07-31T10:50:32;33.40;36.20
63047;DHT22;62025;39.238;9.126;2023-07-31T10:53:03;33.50;35.70
63047;DHT22;62025;39.238;9.126;2023-07-31T10:55:33;33.50;35.90
63047;DHT22;62025;39.238;9.126;2023-07-31T10:58:09;33.60;36.00
63047;DHT22;62025;39.238;9.126;2023-07-31T11:00:44;33.50;36.50
63047;DHT22;62025;39.238;9.126;2023-07-31T11:03:15;33.50;37.70
63047;DHT22;62025;39.238;9.126;2023-07-31T11:05:53;33.50;38.10
63047;DHT22;62025;39.238;9.126;2023-07-31T11:08:31;33.50;38.10
63047;DHT22;62025;39.238;9.126;2023-07-31T11:13:47;33.40;38.70
63047;DHT22;62025;39.238;9.126;2023-07-31T11:16:16;33.40;38.50
63047;DHT22;62025;39.238;9.126;2023-07-31T11:18:44;33.40;38.40
63047;DHT22;62025;39.238;9.126;2023-07-31T11:21:15;33.40;38.60
63047;DHT22;62025;39.238;9.126;2023-07-31T11:23:47;33.40;38.20
63047;DHT22;62025;39.238;9.126;2023-07-31T11:26:23;34.00;37.40
63047;DHT22;62025;39.238;9.126;2023-07-31T11:28:50;34.30;37.20
63047;DHT22;62025;39.238;9.126;2023-07-31T11:31:17;34.30;37.10
63047;DHT22;62025;39.238;9.126;2023-07-31T11:33:44;34.40;37.20
63047;DHT22;62025;39.238;9.126;2023-07-31T11:36:20;34.40;35.90
63047;DHT22;62025;39.238;9.126;2023-07-31T11:38:47;34.50;35.60
63047;DHT22;62025;39.238;9.126;2023-07-31T11:41:15;34.60;35.00
63047;DHT22;62025;39.238;9.126;2023-07-31T11:43:47;34.60;34.20
63047;DHT22;62025;39.238;9.126;2023-07-31T11:46:14;34.70;32.30
63047;DHT22;62025;39.238;9.126;2023-07-31T11:48:40;34.60;31.50
63047;DHT22;62025;39.238;9.126;2023-07-31T11:51:08;34.70;30.90
63047;DHT22;62025;39.238;9.126;2023-07-31T11:53:44;34.70;30.00
63047;DHT22;62025;39.238;9.126;2023-07-31T11:56:13;34.50;29.70
63047;DHT22;62025;39.238;9.126;2023-07-31T11:58:41;34.60;29.10
63047;DHT22;62025;39.238;9.126;2023-07-31T12:01:09;34.70;28.30
63047;DHT22;62025;39.238;9.126;2023-07-31T12:03:35;34.70;28.10
63047;DHT22;62025;39.238;9.126;2023-07-31T12:06:01;34.70;28.00
63047;DHT22;62025;39.238;9.126;2023-07-31T12:08:28;34.60;27.60
63047;DHT22;62025;39.238;9.126;2023-07-31T12:11:05;34.90;27.80
63047;DHT22;62025;39.238;9.126;2023-07-31T12:13:35;34.90;27.20
63047;DHT22;62025;39.238;9.126;2023-07-31T12:16:03;34.70;27.10
63047;DHT22;62025;39.238;9.126;2023-07-31T12:18:36;34.70;26.50
63047;DHT22;62025;39.238;9.126;2023-07-31T12:21:07;34.60;26.90
63047;DHT22;62025;39.238;9.126;2023-07-31T12:23:35;34.50;27.60
63047;DHT22;62025;39.238;9.126;2023-07-31T12:28:40;34.60;28.10
63047;DHT22;62025;39.238;9.126;2023-07-31T12:31:22;34.40;27.90
63047;DHT22;62025;39.238;9.126;2023-07-31T12:33:50;34.50;28.50
63047;DHT22;62025;39.238;9.126;2023-07-31T12:36:18;34.50;28.90
63047;DHT22;62025;39.238;9.126;2023-07-31T12:38:47;34.50;28.30
63047;DHT22;62025;39.238;9.126;2023-07-31T12:41:13;34.50;27.90
63047;DHT22;62025;39.238;9.126;2023-07-31T12:43:40;34.40;27.90
63047;DHT22;62025;39.238;9.126;2023-07-31T12:46:08;34.40;28.80
63047;DHT22;62025;39.238;9.126;2023-07-31T12:48:34;34.30;29.20
63047;DHT22;62025;39.238;9.126;2023-07-31T12:51:00;34.30;29.20
63047;DHT22;62025;39.238;9.126;2023-07-31T12:53:27;34.20;28.50
63047;DHT22;62025;39.238;9.126;2023-07-31T12:55:54;34.30;28.80
63047;DHT22;62025;39.238;9.126;2023-07-31T12:58:20;34.30;29.70
63047;DHT22;62025;39.238;9.126;2023-07-31T13:00:46;34.10;30.50
63047;DHT22;62025;39.238;9.126;2023-07-31T13:03:12;34.10;31.30
63047;DHT22;62025;39.238;9.126;2023-07-31T13:05:38;34.00;31.80
63047;DHT22;62025;39.238;9.126;2023-07-31T13:08:04;33.90;32.30
63047;DHT22;62025;39.238;9.126;2023-07-31T13:10:31;33.80;32.20
63047;DHT22;62025;39.238;9.126;2023-07-31T13:12:57;33.60;32.60
63047;DHT22;62025;39.238;9.126;2023-07-31T13:15:23;33.60;32.50
63047;DHT22;62025;39.238;9.126;2023-07-31T13:17:49;33.60;32.50
63047;DHT22;62025;39.238;9.126;2023-07-31T13:20:15;33.50;32.50
63047;DHT22;62025;39.238;9.126;2023-07-31T13:22:41;33.40;32.90
63047;DHT22;62025;39.238;9.126;2023-07-31T13:25:07;33.40;32.90
63047;DHT22;62025;39.238;9.126;2023-07-31T13:27:34;33.40;32.80
63047;DHT22;62025;39.238;9.126;2023-07-31T13:30:01;33.40;32.90
63047;DHT22;62025;39.238;9.126;2023-07-31T13:32:27;33.30;33.20
63047;DHT22;62025;39.238;9.126;2023-07-31T13:34:53;33.30;33.30
63047;DHT22;62025;39.238;9.126;2023-07-31T13:37:19;33.30;33.60
63047;DHT22;62025;39.238;9.126;2023-07-31T13:39:45;33.20;33.60
63047;DHT22;62025;39.238;9.126;2023-07-31T13:42:11;33.20;33.50
63047;DHT22;62025;39.238;9.126;2023-07-31T13:44:38;33.40;33.40
63047;DHT22;62025;39.238;9.126;2023-07-31T13:47:05;33.50;33.00
63047;DHT22;62025;39.238;9.126;2023-07-31T13:49:32;33.70;32.70
63047;DHT22;62025;39.238;9.126;2023-07-31T13:51:58;33.90;32.30
63047;DHT22;62025;39.238;9.126;2023-07-31T13:54:25;33.70;32.60
63047;DHT22;62025;39.238;9.126;2023-07-31T13:56:52;33.70;32.80
63047;DHT22;62025;39.238;9.126;2023-07-31T13:59:19;33.70;32.30
63047;DHT22;62025;39.238;9.126;2023-07-31T14:01:45;33.60;32.70
63047;DHT22;62025;39.238;9.126;2023-07-31T14:04:11;33.50;32.60
63047;DHT22;62025;39.238;9.126;2023-07-31T14:06:38;33.60;32.30
63047;DHT22;62025;39.238;9.126;2023-07-31T14:09:04;33.60;32.60
63047;DHT22;62025;39.238;9.126;2023-07-31T14:11:31;33.70;32.60
63047;DHT22;62025;39.238;9.126;2023-07-31T14:13:57;33.70;32.90
63047;DHT22;62025;39.238;9.126;2023-07-31T14:16:23;33.60;33.70
63047;DHT22;62025;39.238;9.126;2023-07-31T14:18:49;33.50;34.60
63047;DHT22;62025;39.238;9.126;2023-07-31T14:21:16;33.50;35.10
63047;DHT22;62025;39.238;9.126;2023-07-31T14:23:42;33.50;35.30
63047;DHT22;62025;39.238;9.126;2023-07-31T14:26:08;33.50;35.30
63047;DHT22;62025;39.238;9.126;2023-07-31T14:28:34;33.50;35.20
63047;DHT22;62025;39.238;9.126;2023-07-31T14:31:00;33.50;34.90
63047;DHT22;62025;39.238;9.126;2023-07-31T14:33:26;33.50;35.20
63047;DHT22;62025;39.238;9.126;2023-07-31T14:35:52;33.40;35.90
63047;DHT22;62025;39.238;9.126;2023-07-31T14:42:24;33.10;36.80
63047;DHT22;62025;39.238;9.126;2023-07-31T14:44:50;33.00;36.90
63047;DHT22;62025;39.238;9.126;2023-07-31T14:47:16;32.90;36.80
63047;DHT22;62025;39.238;9.126;2023-07-31T14:49:42;32.90;37.80
63047;DHT22;62025;39.238;9.126;2023-07-31T14:52:08;32.90;37.40
63047;DHT22;62025;39.238;9.126;2023-07-31T14:54:34;32.70;37.20
63047;DHT22;62025;39.238;9.126;2023-07-31T14:57:00;32.80;36.80
63047;DHT22;62025;39.238;9.126;2023-07-31T14:59:26;32.80;36.40
63047;DHT22;62025;39.238;9.126;2023-07-31T15:01:52;32.60;35.40
63047;DHT22;62025;39.238;9.126;2023-07-31T15:04:18;32.60;33.80
63047;DHT22;62025;39.238;9.126;2023-07-31T15:06:44;32.60;34.20
63047;DHT22;62025;39.238;9.126;2023-07-31T15:09:10;32.60;33.30
63047;DHT22;62025;39.238;9.126;2023-07-31T15:11:36;32.60;32.80
63047;DHT22;62025;39.238;9.126;2023-07-31T15:14:02;32.50;33.50
63047;DHT22;62025;39.238;9.126;2023-07-31T15:16:28;32.50;33.50
63047;DHT22;62025;39.238;9.126;2023-07-31T15:18:55;32.50;33.30
63047;DHT22;62025;39.238;9.126;2023-07-31T15:21:21;32.40;34.80
63047;DHT22;62025;39.238;9.126;2023-07-31T15:23:47;32.40;34.20
63047;DHT22;62025;39.238;9.126;2023-07-31T15:26:13;32.40;33.20
63047;DHT22;62025;39.238;9.126;2023-07-31T15:28:39;32.40;33.10
63047;DHT22;62025;39.238;9.126;2023-07-31T15:31:05;32.40;32.00
63047;DHT22;62025;39.238;9.126;2023-07-31T15:33:32;32.30;32.00
63047;DHT22;62025;39.238;9.126;2023-07-31T15:35:58;32.40;32.20
63047;DHT22;62025;39.238;9.126;2023-07-31T15:38:24;32.30;33.80
63047;DHT22;62025;39.238;9.126;2023-07-31T15:40:50;32.30;35.20
63047;DHT22;62025;39.238;9.126;2023-07-31T15:43:16;32.20;36.10
63047;DHT22;62025;39.238;9.126;2023-07-31T15:45:44;32.20;35.50
63047;DHT22;62025;39.238;9.126;2023-07-31T15:48:10;32.10;35.90